sensor_id;sensor_type;location;lat;lon;timestamp;P1;durP1;ratioP1;P2;durP2;ratioP2
68866;SDS011;56451;44.804;20.476;2022-10-22T00:00:22;12.90;;;7.43;;
68866;SDS011;56451;44.804;20.476;2022-10-22T00:02:48;11.75;;;7.20;;
68866;SDS011;56451;44.804;20.476;2022-10-22T00:05:14;14.13;;;7.65;;
68866;SDS011;56451;44.804;20.476;2022-10-22T00:07:40;13.80;;;7.82;;
68866;SDS011;56451;44.804;20.476;2022-10-22T00:10:06;15.20;;;7.60;;
68866;SDS011;56451;44.804;20.476;2022-10-22T00:12:32;11.90;;;7.40;;
68866;SDS011;56451;44.804;20.476;2022-10-22T00:14:59;10.85;;;7.35;;
68866;SDS011;56451;44.804;20.476;2022-10-22T00:17:24;13.87;;;7.70;;
68866;SDS011;56451;44.804;20.476;2022-10-22T00:19:50;12.13;;;7.10;;
68866;SDS011;56451;44.804;20.476;2022-10-22T00:22:16;11.33;;;7.30;;
68866;SDS011;56451;44.804;20.476;2022-10-22T00:24:42;11.73;;;7.07;;
68866;SDS011;56451;44.804;20.476;2022-10-22T00:27:08;12.68;;;7.47;;
68866;SDS011;56451;44.804;20.476;2022-10-22T00:29:35;11.35;;;7.55;;
68866;SDS011;56451;44.804;20.476;2022-10-22T00:32:02;11.00;;;7.03;;
68866;SDS011;56451;44.804;20.476;2022-10-22T00:34:28;14.68;;;7.63;;
68866;SDS011;56451;44.804;20.476;2022-10-22T00:36:54;11.27;;;7.43;;
68866;SDS011;56451;44.804;20.476;2022-10-22T00:39:21;10.55;;;6.93;;
68866;SDS011;56451;44.804;20.476;2022-10-22T00:41:49;11.33;;;6.87;;
68866;SDS011;56451;44.804;20.476;2022-10-22T00:47:21;13.30;;;7.55;;
68866;SDS011;56451;44.804;20.476;2022-10-22T00:49:49;10.45;;;7.13;;
68866;SDS011;56451;44.804;20.476;2022-10-22T00:52:18;12.95;;;7.30;;
68866;SDS011;56451;44.804;20.476;2022-10-22T00:54:44;10.90;;;7.60;;
68866;SDS011;56451;44.804;20.476;2022-10-22T00:57:10;13.63;;;7.65;;
68866;SDS011;56451;44.804;20.476;2022-10-22T00:59:36;13.77;;;7.60;;
68866;SDS011;56451;44.804;20.476;2022-10-22T01:02:03;13.60;;;7.20;;
68866;SDS011;56451;44.804;20.476;2022-10-22T01:04:29;11.85;;;6.93;;
68866;SDS011;56451;44.804;20.476;2022-10-22T01:06:54;13.20;;;7.65;;
68866;SDS011;56451;44.804;20.476;2022-10-22T01:26:03;14.40;;;7.47;;
68866;SDS011;56451;44.804;20.476;2022-10-22T01:31:02;13.85;;;7.22;;
68866;SDS011;56451;44.804;20.476;2022-10-22T01:33:30;13.52;;;7.60;;
68866;SDS011;56451;44.804;20.476;2022-10-22T01:35:58;12.90;;;6.85;;
68866;SDS011;56451;44.804;20.476;2022-10-22T01:38:24;12.13;;;7.63;;
68866;SDS011;56451;44.804;20.476;2022-10-22T01:40:51;13.10;;;7.78;;
68866;SDS011;56451;44.804;20.476;2022-10-22T01:43:17;13.18;;;7.68;;
68866;SDS011;56451;44.804;20.476;2022-10-22T01:48:19;15.73;;;7.47;;
68866;SDS011;56451;44.804;20.476;2022-10-22T01:54:24;11.25;;;6.97;;
68866;SDS011;56451;44.804;20.476;2022-10-22T02:00:05;11.77;;;6.57;;
68866;SDS011;56451;44.804;20.476;2022-10-22T02:05:45;14.95;;;7.28;;
68866;SDS011;56451;44.804;20.476;2022-10-22T02:08:19;14.38;;;7.25;;
68866;SDS011;56451;44.804;20.476;2022-10-22T02:10:51;10.38;;;6.72;;
68866;SDS011;56451;44.804;20.476;2022-10-22T02:13:26;12.73;;;7.53;;
68866;SDS011;56451;44.804;20.476;2022-10-22T02:15:55;13.33;;;7.33;;
68866;SDS011;56451;44.804;20.476;2022-10-22T02:18:23;12.82;;;7.43;;
68866;SDS011;56451;44.804;20.476;2022-10-22T02:20:52;16.80;;;7.88;;
68866;SDS011;56451;44.804;20.476;2022-10-22T02:23:19;11.98;;;7.15;;
68866;SDS011;56451;44.804;20.476;2022-10-22T02:25:47;13.20;;;7.22;;
68866;SDS011;56451;44.804;20.476;2022-10-22T02:28:18;13.63;;;7.33;;
68866;SDS011;56451;44.804;20.476;2022-10-22T02:30:52;14.98;;;7.55;;
68866;SDS011;56451;44.804;20.476;2022-10-22T02:33:23;12.40;;;7.32;;
68866;SDS011;56451;44.804;20.476;2022-10-22T02:35:55;13.00;;;7.10;;
68866;SDS011;56451;44.804;20.476;2022-10-22T02:38:23;12.75;;;8.10;;
68866;SDS011;56451;44.804;20.476;2022-10-22T02:40:51;12.73;;;8.17;;
68866;SDS011;56451;44.804;20.476;2022-10-22T02:43:17;12.82;;;7.55;;
68866;SDS011;56451;44.804;20.476;2022-10-22T02:45:44;14.57;;;7.07;;
68866;SDS011;56451;44.804;20.476;2022-10-22T02:48:11;15.98;;;7.70;;
68866;SDS011;56451;44.804;20.476;2022-10-22T02:50:37;17.70;;;7.78;;
68866;SDS011;56451;44.804;20.476;2022-10-22T02:53:03;11.53;;;7.30;;
68866;SDS011;56451;44.804;20.476;2022-10-22T02:55:28;11.75;;;7.15;;
68866;SDS011;56451;44.804;20.476;2022-10-22T02:57:54;17.45;;;8.30;;
68866;SDS011;56451;44.804;20.476;2022-10-22T03:00:20;13.77;;;7.97;;
68866;SDS011;56451;44.804;20.476;2022-10-22T03:02:46;14.75;;;7.95;;
68866;SDS011;56451;44.804;20.476;2022-10-22T03:05:12;15.10;;;7.80;;
68866;SDS011;56451;44.804;20.476;2022-10-22T03:07:38;15.43;;;8.32;;
68866;SDS011;56451;44.804;20.476;2022-10-22T03:10:04;13.57;;;8.13;;
68866;SDS011;56451;44.804;20.476;2022-10-22T03:12:30;13.52;;;7.72;;
68866;SDS011;56451;44.804;20.476;2022-10-22T03:14:56;12.98;;;7.70;;
68866;SDS011;56451;44.804;20.476;2022-10-22T03:17:22;14.70;;;8.23;;
68866;SDS011;56451;44.804;20.476;2022-10-22T03:19:48;19.92;;;7.93;;
68866;SDS011;56451;44.804;20.476;2022-10-22T03:22:16;11.30;;;7.60;;
68866;SDS011;56451;44.804;20.476;2022-10-22T03:24:48;13.47;;;7.70;;
68866;SDS011;56451;44.804;20.476;2022-10-22T03:27:17;16.58;;;7.80;;
68866;SDS011;56451;44.804;20.476;2022-10-22T03:29:45;13.50;;;7.70;;
68866;SDS011;56451;44.804;20.476;2022-10-22T03:32:14;13.02;;;8.65;;
68866;SDS011;56451;44.804;20.476;2022-10-22T03:34:40;16.17;;;8.85;;
68866;SDS011;56451;44.804;20.476;2022-10-22T03:37:06;17.63;;;9.07;;
68866;SDS011;56451;44.804;20.476;2022-10-22T03:39:32;15.60;;;9.02;;
68866;SDS011;56451;44.804;20.476;2022-10-22T03:42:00;19.35;;;9.65;;
68866;SDS011;56451;44.804;20.476;2022-10-22T03:44:27;14.65;;;8.35;;
68866;SDS011;56451;44.804;20.476;2022-10-22T03:46:54;13.23;;;8.63;;
68866;SDS011;56451;44.804;20.476;2022-10-22T03:49:20;12.98;;;8.35;;
68866;SDS011;56451;44.804;20.476;2022-10-22T03:51:46;13.70;;;8.23;;
68866;SDS011;56451;44.804;20.476;2022-10-22T03:54:12;12.93;;;7.83;;
68866;SDS011;56451;44.804;20.476;2022-10-22T03:56:38;16.20;;;7.90;;
68866;SDS011;56451;44.804;20.476;2022-10-22T03:59:04;12.65;;;8.00;;
68866;SDS011;56451;44.804;20.476;2022-10-22T04:01:30;15.02;;;7.68;;
68866;SDS011;56451;44.804;20.476;2022-10-22T04:03:56;16.33;;;8.17;;
68866;SDS011;56451;44.804;20.476;2022-10-22T04:06:22;10.73;;;6.85;;
68866;SDS011;56451;44.804;20.476;2022-10-22T04:08:48;16.52;;;8.57;;
68866;SDS011;56451;44.804;20.476;2022-10-22T04:11:14;14.40;;;7.88;;
68866;SDS011;56451;44.804;20.476;2022-10-22T04:13:41;17.63;;;8.43;;
68866;SDS011;56451;44.804;20.476;2022-10-22T04:16:17;18.87;;;8.70;;
68866;SDS011;56451;44.804;20.476;2022-10-22T04:18:45;15.02;;;7.70;;
68866;SDS011;56451;44.804;20.476;2022-10-22T04:21:13;13.35;;;8.05;;
68866;SDS011;56451;44.804;20.476;2022-10-22T04:23:45;13.52;;;8.43;;
68866;SDS011;56451;44.804;20.476;2022-10-22T04:26:12;15.05;;;8.23;;
68866;SDS011;56451;44.804;20.476;2022-10-22T04:28:38;14.43;;;8.27;;
68866;SDS011;56451;44.804;20.476;2022-10-22T04:31:10;15.82;;;8.07;;
68866;SDS011;56451;44.804;20.476;2022-10-22T04:33:38;15.88;;;7.80;;
68866;SDS011;56451;44.804;20.476;2022-10-22T04:36:14;13.93;;;7.57;;
68866;SDS011;56451;44.804;20.476;2022-10-22T04:38:43;14.88;;;8.02;;
68866;SDS011;56451;44.804;20.476;2022-10-22T04:41:11;15.93;;;7.77;;
68866;SDS011;56451;44.804;20.476;2022-10-22T04:43:39;15.05;;;7.93;;
68866;SDS011;56451;44.804;20.476;2022-10-22T04:46:05;15.75;;;8.25;;
68866;SDS011;56451;44.804;20.476;2022-10-22T04:48:34;15.27;;;7.68;;
68866;SDS011;56451;44.804;20.476;2022-10-22T04:51:01;13.52;;;7.95;;
68866;SDS011;56451;44.804;20.476;2022-10-22T04:53:27;17.03;;;7.93;;
68866;SDS011;56451;44.804;20.476;2022-10-22T04:55:52;14.55;;;8.00;;
68866;SDS011;56451;44.804;20.476;2022-10-22T04:58:19;13.13;;;7.85;;
68866;SDS011;56451;44.804;20.476;2022-10-22T05:00:45;12.87;;;7.13;;
68866;SDS011;56451;44.804;20.476;2022-10-22T05:03:10;14.32;;;8.30;;
68866;SDS011;56451;44.804;20.476;2022-10-22T05:05:36;17.00;;;7.72;;
68866;SDS011;56451;44.804;20.476;2022-10-22T05:08:02;11.13;;;6.63;;
68866;SDS011;56451;44.804;20.476;2022-10-22T05:10:28;17.48;;;7.22;;
68866;SDS011;56451;44.804;20.476;2022-10-22T05:12:54;14.07;;;7.78;;
68866;SDS011;56451;44.804;20.476;2022-10-22T05:15:20;12.83;;;7.60;;
68866;SDS011;56451;44.804;20.476;2022-10-22T05:17:45;12.25;;;7.95;;
68866;SDS011;56451;44.804;20.476;2022-10-22T05:20:11;13.82;;;8.30;;
68866;SDS011;56451;44.804;20.476;2022-10-22T05:22:37;20.37;;;10.13;;
68866;SDS011;56451;44.804;20.476;2022-10-22T05:25:03;19.02;;;9.43;;
68866;SDS011;56451;44.804;20.476;2022-10-22T05:27:29;20.42;;;9.30;;
68866;SDS011;56451;44.804;20.476;2022-10-22T05:29:55;18.27;;;8.20;;
68866;SDS011;56451;44.804;20.476;2022-10-22T05:32:21;21.83;;;9.75;;
68866;SDS011;56451;44.804;20.476;2022-10-22T05:34:47;15.80;;;9.07;;
68866;SDS011;56451;44.804;20.476;2022-10-22T05:37:13;16.50;;;7.93;;
68866;SDS011;56451;44.804;20.476;2022-10-22T05:39:39;16.17;;;8.60;;
68866;SDS011;56451;44.804;20.476;2022-10-22T05:42:05;21.10;;;8.95;;
68866;SDS011;56451;44.804;20.476;2022-10-22T05:44:31;15.80;;;8.93;;
68866;SDS011;56451;44.804;20.476;2022-10-22T05:46:57;18.50;;;8.63;;
68866;SDS011;56451;44.804;20.476;2022-10-22T05:49:23;15.43;;;8.60;;
68866;SDS011;56451;44.804;20.476;2022-10-22T05:51:49;13.38;;;8.82;;
68866;SDS011;56451;44.804;20.476;2022-10-22T05:54:16;16.53;;;9.20;;
68866;SDS011;56451;44.804;20.476;2022-10-22T05:56:43;21.40;;;9.23;;
68866;SDS011;56451;44.804;20.476;2022-10-22T05:59:10;18.38;;;9.15;;
68866;SDS011;56451;44.804;20.476;2022-10-22T06:01:37;14.82;;;8.07;;
68866;SDS011;56451;44.804;20.476;2022-10-22T06:04:05;16.35;;;8.43;;
68866;SDS011;56451;44.804;20.476;2022-10-22T06:06:33;15.03;;;8.70;;
68866;SDS011;56451;44.804;20.476;2022-10-22T06:09:03;21.15;;;8.95;;
68866;SDS011;56451;44.804;20.476;2022-10-22T06:11:31;14.80;;;8.82;;
68866;SDS011;56451;44.804;20.476;2022-10-22T06:13:57;17.10;;;8.88;;
68866;SDS011;56451;44.804;20.476;2022-10-22T06:16:23;21.23;;;8.87;;
68866;SDS011;56451;44.804;20.476;2022-10-22T06:18:49;15.95;;;8.65;;
68866;SDS011;56451;44.804;20.476;2022-10-22T06:21:15;15.23;;;8.97;;
68866;SDS011;56451;44.804;20.476;2022-10-22T06:23:41;17.73;;;9.40;;
68866;SDS011;56451;44.804;20.476;2022-10-22T06:26:08;15.48;;;10.25;;
68866;SDS011;56451;44.804;20.476;2022-10-22T06:28:35;16.50;;;8.70;;
68866;SDS011;56451;44.804;20.476;2022-10-22T06:31:01;17.00;;;9.35;;
68866;SDS011;56451;44.804;20.476;2022-10-22T06:33:28;17.80;;;8.70;;
68866;SDS011;56451;44.804;20.476;2022-10-22T06:36:03;20.08;;;9.38;;
68866;SDS011;56451;44.804;20.476;2022-10-22T06:38:30;18.27;;;8.93;;
68866;SDS011;56451;44.804;20.476;2022-10-22T06:41:00;20.77;;;9.95;;
68866;SDS011;56451;44.804;20.476;2022-10-22T06:43:30;18.40;;;8.87;;
68866;SDS011;56451;44.804;20.476;2022-10-22T06:45:59;18.65;;;10.25;;
68866;SDS011;56451;44.804;20.476;2022-10-22T06:48:31;21.05;;;10.27;;
68866;SDS011;56451;44.804;20.476;2022-10-22T06:51:00;16.98;;;10.32;;
68866;SDS011;56451;44.804;20.476;2022-10-22T06:53:28;18.77;;;10.00;;
68866;SDS011;56451;44.804;20.476;2022-10-22T06:55:55;18.35;;;9.05;;
68866;SDS011;56451;44.804;20.476;2022-10-22T06:58:20;21.10;;;9.85;;
68866;SDS011;56451;44.804;20.476;2022-10-22T07:00:46;17.42;;;9.57;;
68866;SDS011;56451;44.804;20.476;2022-10-22T07:03:13;17.13;;;9.23;;
68866;SDS011;56451;44.804;20.476;2022-10-22T07:05:40;17.77;;;9.23;;
68866;SDS011;56451;44.804;20.476;2022-10-22T07:08:06;15.07;;;9.13;;
68866;SDS011;56451;44.804;20.476;2022-10-22T07:10:32;18.73;;;9.82;;
68866;SDS011;56451;44.804;20.476;2022-10-22T07:12:58;19.15;;;9.82;;
68866;SDS011;56451;44.804;20.476;2022-10-22T07:15:24;15.90;;;9.60;;
68866;SDS011;56451;44.804;20.476;2022-10-22T07:17:50;15.45;;;9.48;;
68866;SDS011;56451;44.804;20.476;2022-10-22T07:20:16;19.53;;;9.63;;
68866;SDS011;56451;44.804;20.476;2022-10-22T07:22:45;15.53;;;9.40;;
68866;SDS011;56451;44.804;20.476;2022-10-22T07:25:10;16.25;;;9.73;;
68866;SDS011;56451;44.804;20.476;2022-10-22T07:27:36;15.43;;;9.10;;
68866;SDS011;56451;44.804;20.476;2022-10-22T07:30:03;16.55;;;10.13;;
68866;SDS011;56451;44.804;20.476;2022-10-22T07:32:29;17.70;;;10.23;;
68866;SDS011;56451;44.804;20.476;2022-10-22T07:34:54;16.92;;;9.27;;
68866;SDS011;56451;44.804;20.476;2022-10-22T07:37:20;16.97;;;9.43;;
68866;SDS011;56451;44.804;20.476;2022-10-22T07:39:47;24.38;;;10.55;;
68866;SDS011;56451;44.804;20.476;2022-10-22T07:42:13;13.10;;;9.45;;
68866;SDS011;56451;44.804;20.476;2022-10-22T07:44:39;16.88;;;9.82;;
68866;SDS011;56451;44.804;20.476;2022-10-22T07:47:05;20.10;;;10.17;;
68866;SDS011;56451;44.804;20.476;2022-10-22T07:49:31;18.60;;;9.88;;
68866;SDS011;56451;44.804;20.476;2022-10-22T07:51:57;17.48;;;9.43;;
68866;SDS011;56451;44.804;20.476;2022-10-22T07:54:23;16.77;;;9.70;;
68866;SDS011;56451;44.804;20.476;2022-10-22T07:56:49;16.83;;;9.10;;
68866;SDS011;56451;44.804;20.476;2022-10-22T07:59:15;15.45;;;9.35;;
68866;SDS011;56451;44.804;20.476;2022-10-22T08:01:41;16.83;;;9.80;;
68866;SDS011;56451;44.804;20.476;2022-10-22T08:04:07;15.88;;;9.60;;
68866;SDS011;56451;44.804;20.476;2022-10-22T08:06:34;21.27;;;9.57;;
68866;SDS011;56451;44.804;20.476;2022-10-22T08:09:00;14.90;;;10.20;;
68866;SDS011;56451;44.804;20.476;2022-10-22T08:11:26;19.42;;;10.32;;
68866;SDS011;56451;44.804;20.476;2022-10-22T08:13:52;22.27;;;10.17;;
68866;SDS011;56451;44.804;20.476;2022-10-22T08:16:18;15.77;;;9.50;;
68866;SDS011;56451;44.804;20.476;2022-10-22T08:18:44;17.00;;;10.35;;
68866;SDS011;56451;44.804;20.476;2022-10-22T08:21:10;18.03;;;10.27;;
68866;SDS011;56451;44.804;20.476;2022-10-22T08:23:37;17.15;;;9.93;;
68866;SDS011;56451;44.804;20.476;2022-10-22T08:26:03;17.83;;;9.70;;
68866;SDS011;56451;44.804;20.476;2022-10-22T08:28:29;14.35;;;8.88;;
68866;SDS011;56451;44.804;20.476;2022-10-22T08:30:59;15.37;;;9.00;;
68866;SDS011;56451;44.804;20.476;2022-10-22T08:33:25;18.75;;;9.43;;
68866;SDS011;56451;44.804;20.476;2022-10-22T08:35:51;19.73;;;9.82;;
68866;SDS011;56451;44.804;20.476;2022-10-22T08:38:18;19.23;;;9.30;;
68866;SDS011;56451;44.804;20.476;2022-10-22T08:40:50;15.07;;;9.57;;
68866;SDS011;56451;44.804;20.476;2022-10-22T08:48:58;20.73;;;11.00;;
68866;SDS011;56451;44.804;20.476;2022-10-22T08:51:30;13.50;;;8.88;;
68866;SDS011;56451;44.804;20.476;2022-10-22T08:54:05;14.73;;;9.43;;
68866;SDS011;56451;44.804;20.476;2022-10-22T08:56:35;18.10;;;9.30;;
68866;SDS011;56451;44.804;20.476;2022-10-22T08:59:22;16.88;;;9.98;;
68866;SDS011;56451;44.804;20.476;2022-10-22T09:01:57;13.35;;;8.65;;
68866;SDS011;56451;44.804;20.476;2022-10-22T09:04:25;15.47;;;8.93;;
68866;SDS011;56451;44.804;20.476;2022-10-22T09:06:56;18.52;;;8.65;;
68866;SDS011;56451;44.804;20.476;2022-10-22T09:09:25;14.52;;;9.25;;
68866;SDS011;56451;44.804;20.476;2022-10-22T09:11:55;14.60;;;8.75;;
68866;SDS011;56451;44.804;20.476;2022-10-22T09:14:23;18.00;;;9.30;;
68866;SDS011;56451;44.804;20.476;2022-10-22T09:22:26;16.70;;;9.07;;
68866;SDS011;56451;44.804;20.476;2022-10-22T09:27:44;15.30;;;8.95;;
68866;SDS011;56451;44.804;20.476;2022-10-22T09:30:17;19.67;;;8.47;;
68866;SDS011;56451;44.804;20.476;2022-10-22T09:32:46;14.35;;;7.72;;
68866;SDS011;56451;44.804;20.476;2022-10-22T09:35:21;14.35;;;9.45;;
68866;SDS011;56451;44.804;20.476;2022-10-22T09:37:49;14.95;;;8.77;;
68866;SDS011;56451;44.804;20.476;2022-10-22T09:40:16;14.20;;;8.98;;
68866;SDS011;56451;44.804;20.476;2022-10-22T09:42:43;15.73;;;9.20;;
68866;SDS011;56451;44.804;20.476;2022-10-22T09:45:14;15.20;;;8.70;;
68866;SDS011;56451;44.804;20.476;2022-10-22T09:47:43;17.42;;;8.52;;
68866;SDS011;56451;44.804;20.476;2022-10-22T09:53:10;15.25;;;8.35;;
68866;SDS011;56451;44.804;20.476;2022-10-22T09:55:40;11.53;;;8.00;;
68866;SDS011;56451;44.804;20.476;2022-10-22T09:58:12;18.55;;;9.07;;
68866;SDS011;56451;44.804;20.476;2022-10-22T10:00:39;15.85;;;8.52;;
68866;SDS011;56451;44.804;20.476;2022-10-22T10:03:11;17.13;;;9.35;;
68866;SDS011;56451;44.804;20.476;2022-10-22T10:05:41;13.38;;;8.48;;
68866;SDS011;56451;44.804;20.476;2022-10-22T10:08:12;15.87;;;8.70;;
68866;SDS011;56451;44.804;20.476;2022-10-22T10:24:55;17.02;;;9.32;;
68866;SDS011;56451;44.804;20.476;2022-10-22T10:27:48;15.65;;;9.63;;
68866;SDS011;56451;44.804;20.476;2022-10-22T10:30:37;15.93;;;9.55;;
68866;SDS011;56451;44.804;20.476;2022-10-22T10:35:52;23.23;;;9.00;;
68866;SDS011;56451;44.804;20.476;2022-10-22T10:43:41;18.30;;;9.85;;
68866;SDS011;56451;44.804;20.476;2022-10-22T10:49:19;14.33;;;9.17;;
68866;SDS011;56451;44.804;20.476;2022-10-22T10:57:34;15.57;;;9.13;;
68866;SDS011;56451;44.804;20.476;2022-10-22T11:00:22;14.48;;;9.40;;
68866;SDS011;56451;44.804;20.476;2022-10-22T11:03:32;13.90;;;9.30;;
68866;SDS011;56451;44.804;20.476;2022-10-22T11:05:53;17.58;;;10.13;;
68866;SDS011;56451;44.804;20.476;2022-10-22T11:08:32;18.88;;;9.60;;
68866;SDS011;56451;44.804;20.476;2022-10-22T11:11:02;16.38;;;9.50;;
68866;SDS011;56451;44.804;20.476;2022-10-22T11:13:40;17.73;;;9.93;;
68866;SDS011;56451;44.804;20.476;2022-10-22T11:19:15;20.17;;;9.80;;
68866;SDS011;56451;44.804;20.476;2022-10-22T11:22:05;15.48;;;9.40;;
68866;SDS011;56451;44.804;20.476;2022-10-22T11:24:45;18.60;;;9.77;;
68866;SDS011;56451;44.804;20.476;2022-10-22T11:30:16;14.63;;;9.30;;
68866;SDS011;56451;44.804;20.476;2022-10-22T11:32:48;14.60;;;8.77;;
68866;SDS011;56451;44.804;20.476;2022-10-22T11:35:25;19.58;;;9.38;;
68866;SDS011;56451;44.804;20.476;2022-10-22T11:37:54;18.58;;;9.90;;
68866;SDS011;56451;44.804;20.476;2022-10-22T11:40:29;18.77;;;9.95;;
68866;SDS011;56451;44.804;20.476;2022-10-22T11:43:08;16.10;;;9.27;;
68866;SDS011;56451;44.804;20.476;2022-10-22T11:45:36;16.15;;;8.95;;
68866;SDS011;56451;44.804;20.476;2022-10-22T11:50:54;22.17;;;10.57;;
68866;SDS011;56451;44.804;20.476;2022-10-22T11:56:36;22.30;;;9.67;;
68866;SDS011;56451;44.804;20.476;2022-10-22T11:58:47;24.88;;;10.18;;
68866;SDS011;56451;44.804;20.476;2022-10-22T12:01:21;18.77;;;9.95;;
68866;SDS011;56451;44.804;20.476;2022-10-22T12:03:50;20.75;;;9.60;;
68866;SDS011;56451;44.804;20.476;2022-10-22T12:06:19;16.33;;;9.43;;
68866;SDS011;56451;44.804;20.476;2022-10-22T12:11:14;16.63;;;9.43;;
68866;SDS011;56451;44.804;20.476;2022-10-22T12:13:51;17.75;;;9.57;;
68866;SDS011;56451;44.804;20.476;2022-10-22T12:16:34;19.70;;;9.80;;
68866;SDS011;56451;44.804;20.476;2022-10-22T12:19:11;16.15;;;9.48;;
68866;SDS011;56451;44.804;20.476;2022-10-22T12:24:42;18.88;;;9.27;;
68866;SDS011;56451;44.804;20.476;2022-10-22T12:27:16;17.80;;;9.50;;
68866;SDS011;56451;44.804;20.476;2022-10-22T12:29:44;20.60;;;9.47;;
68866;SDS011;56451;44.804;20.476;2022-10-22T12:32:11;17.83;;;9.15;;
68866;SDS011;56451;44.804;20.476;2022-10-22T12:34:46;15.15;;;9.95;;
68866;SDS011;56451;44.804;20.476;2022-10-22T12:37:14;19.10;;;8.95;;
68866;SDS011;56451;44.804;20.476;2022-10-22T12:39:41;14.38;;;8.43;;
68866;SDS011;56451;44.804;20.476;2022-10-22T12:42:11;19.50;;;9.73;;
68866;SDS011;56451;44.804;20.476;2022-10-22T12:44:39;16.17;;;8.50;;
68866;SDS011;56451;44.804;20.476;2022-10-22T12:47:05;16.33;;;8.18;;
68866;SDS011;56451;44.804;20.476;2022-10-22T12:49:38;17.45;;;8.10;;
68866;SDS011;56451;44.804;20.476;2022-10-22T12:52:06;16.93;;;8.20;;
68866;SDS011;56451;44.804;20.476;2022-10-22T12:54:37;19.65;;;8.82;;
68866;SDS011;56451;44.804;20.476;2022-10-22T12:57:04;18.48;;;8.95;;
68866;SDS011;56451;44.804;20.476;2022-10-22T13:01:58;16.85;;;7.95;;
68866;SDS011;56451;44.804;20.476;2022-10-22T13:07:02;15.63;;;9.27;;
68866;SDS011;56451;44.804;20.476;2022-10-22T13:12:11;16.95;;;9.45;;
68866;SDS011;56451;44.804;20.476;2022-10-22T13:14:41;16.02;;;8.57;;
68866;SDS011;56451;44.804;20.476;2022-10-22T13:17:13;17.63;;;9.40;;
68866;SDS011;56451;44.804;20.476;2022-10-22T13:22:33;16.23;;;8.52;;
68866;SDS011;56451;44.804;20.476;2022-10-22T13:27:45;16.42;;;9.13;;
68866;SDS011;56451;44.804;20.476;2022-10-22T13:30:23;16.33;;;8.70;;
68866;SDS011;56451;44.804;20.476;2022-10-22T13:35:31;18.05;;;9.38;;
68866;SDS011;56451;44.804;20.476;2022-10-22T13:38:00;18.40;;;9.80;;
68866;SDS011;56451;44.804;20.476;2022-10-22T13:40:27;18.05;;;9.27;;
68866;SDS011;56451;44.804;20.476;2022-10-22T13:42:53;16.93;;;10.03;;
68866;SDS011;56451;44.804;20.476;2022-10-22T13:45:18;17.70;;;10.43;;
68866;SDS011;56451;44.804;20.476;2022-10-22T13:47:48;18.17;;;10.07;;
68866;SDS011;56451;44.804;20.476;2022-10-22T13:50:18;20.48;;;11.18;;
68866;SDS011;56451;44.804;20.476;2022-10-22T13:52:46;18.67;;;10.23;;
68866;SDS011;56451;44.804;20.476;2022-10-22T13:55:21;18.50;;;10.00;;
68866;SDS011;56451;44.804;20.476;2022-10-22T13:58:05;20.77;;;10.07;;
68866;SDS011;56451;44.804;20.476;2022-10-22T14:00:35;17.33;;;11.70;;
68866;SDS011;56451;44.804;20.476;2022-10-22T14:03:03;17.83;;;11.45;;
68866;SDS011;56451;44.804;20.476;2022-10-22T14:05:29;20.13;;;12.00;;
68866;SDS011;56451;44.804;20.476;2022-10-22T14:08:00;21.73;;;13.80;;
68866;SDS011;56451;44.804;20.476;2022-10-22T14:10:26;24.08;;;13.30;;
68866;SDS011;56451;44.804;20.476;2022-10-22T14:12:52;23.42;;;12.40;;
68866;SDS011;56451;44.804;20.476;2022-10-22T14:15:19;24.23;;;12.65;;
68866;SDS011;56451;44.804;20.476;2022-10-22T14:17:53;21.57;;;11.73;;
68866;SDS011;56451;44.804;20.476;2022-10-22T14:20:23;21.23;;;11.95;;
68866;SDS011;56451;44.804;20.476;2022-10-22T14:22:52;22.90;;;12.13;;
68866;SDS011;56451;44.804;20.476;2022-10-22T14:25:24;19.10;;;11.25;;
68866;SDS011;56451;44.804;20.476;2022-10-22T14:27:50;22.15;;;10.80;;
68866;SDS011;56451;44.804;20.476;2022-10-22T14:30:18;24.90;;;13.47;;
68866;SDS011;56451;44.804;20.476;2022-10-22T14:32:45;21.02;;;11.93;;
68866;SDS011;56451;44.804;20.476;2022-10-22T14:35:14;19.27;;;11.30;;
68866;SDS011;56451;44.804;20.476;2022-10-22T14:37:41;24.95;;;11.55;;
68866;SDS011;56451;44.804;20.476;2022-10-22T14:40:08;21.50;;;10.85;;
68866;SDS011;56451;44.804;20.476;2022-10-22T14:42:39;18.83;;;11.40;;
68866;SDS011;56451;44.804;20.476;2022-10-22T14:45:28;17.55;;;11.48;;
68866;SDS011;56451;44.804;20.476;2022-10-22T14:47:53;23.33;;;12.95;;
68866;SDS011;56451;44.804;20.476;2022-10-22T14:50:20;27.38;;;12.65;;
68866;SDS011;56451;44.804;20.476;2022-10-22T14:52:46;25.98;;;13.27;;
68866;SDS011;56451;44.804;20.476;2022-10-22T14:55:13;21.47;;;11.97;;
68866;SDS011;56451;44.804;20.476;2022-10-22T14:57:41;19.65;;;12.35;;
68866;SDS011;56451;44.804;20.476;2022-10-22T15:00:09;25.00;;;13.63;;
68866;SDS011;56451;44.804;20.476;2022-10-22T15:02:37;24.17;;;14.07;;
68866;SDS011;56451;44.804;20.476;2022-10-22T15:05:03;24.63;;;14.37;;
68866;SDS011;56451;44.804;20.476;2022-10-22T15:07:29;24.30;;;12.70;;
68866;SDS011;56451;44.804;20.476;2022-10-22T15:09:55;18.05;;;11.32;;
68866;SDS011;56451;44.804;20.476;2022-10-22T15:12:22;22.52;;;12.18;;
68866;SDS011;56451;44.804;20.476;2022-10-22T15:14:47;26.48;;;13.70;;
68866;SDS011;56451;44.804;20.476;2022-10-22T15:17:14;22.13;;;12.43;;
68866;SDS011;56451;44.804;20.476;2022-10-22T15:19:41;22.30;;;13.10;;
68866;SDS011;56451;44.804;20.476;2022-10-22T15:22:08;21.13;;;12.10;;
68866;SDS011;56451;44.804;20.476;2022-10-22T15:24:37;20.38;;;13.10;;
68866;SDS011;56451;44.804;20.476;2022-10-22T15:27:05;18.13;;;11.38;;
68866;SDS011;56451;44.804;20.476;2022-10-22T15:29:31;24.13;;;11.87;;
68866;SDS011;56451;44.804;20.476;2022-10-22T15:31:57;25.15;;;12.77;;
68866;SDS011;56451;44.804;20.476;2022-10-22T15:34:42;23.48;;;13.27;;
68866;SDS011;56451;44.804;20.476;2022-10-22T15:37:10;19.05;;;11.48;;
68866;SDS011;56451;44.804;20.476;2022-10-22T15:39:40;20.65;;;12.35;;
68866;SDS011;56451;44.804;20.476;2022-10-22T15:42:07;22.73;;;14.10;;
68866;SDS011;56451;44.804;20.476;2022-10-22T15:44:33;24.25;;;13.15;;
68866;SDS011;56451;44.804;20.476;2022-10-22T15:47:01;28.15;;;14.07;;
68866;SDS011;56451;44.804;20.476;2022-10-22T15:49:29;22.30;;;14.25;;
68866;SDS011;56451;44.804;20.476;2022-10-22T15:51:55;25.80;;;14.88;;
68866;SDS011;56451;44.804;20.476;2022-10-22T15:54:22;26.97;;;16.87;;
68866;SDS011;56451;44.804;20.476;2022-10-22T15:56:50;36.72;;;16.33;;
68866;SDS011;56451;44.804;20.476;2022-10-22T15:59:16;28.95;;;15.98;;
68866;SDS011;56451;44.804;20.476;2022-10-22T16:01:44;30.10;;;15.73;;
68866;SDS011;56451;44.804;20.476;2022-10-22T16:04:10;32.23;;;15.90;;
68866;SDS011;56451;44.804;20.476;2022-10-22T16:09:11;22.88;;;15.18;;
68866;SDS011;56451;44.804;20.476;2022-10-22T16:11:41;27.13;;;14.80;;
68866;SDS011;56451;44.804;20.476;2022-10-22T16:14:09;26.45;;;15.00;;
68866;SDS011;56451;44.804;20.476;2022-10-22T16:16:36;26.57;;;14.77;;
68866;SDS011;56451;44.804;20.476;2022-10-22T16:19:04;25.02;;;15.60;;
68866;SDS011;56451;44.804;20.476;2022-10-22T16:21:30;30.90;;;17.23;;
68866;SDS011;56451;44.804;20.476;2022-10-22T16:23:55;29.98;;;16.83;;